Terminal Aerodrome Forecast
Issued by NWS

Current Version | Previous Version | Text Only | Print | Product List | Glossary On
Versions: 1 2 3 4 5 6 7 8 9 10 11 12 13 14
000
FTUS42 KJAX 011100
TAFCRG
TAF
KCRG 011120Z 0112/0212 22003KT P6SM SCT250
     FM011500 25005KT P6SM FEW030 SCT250
     FM011800 11008KT P6SM VCTS BKN040CB BKN250
     FM020200 16003KT P6SM SCT050 SCT250=

USA.gov is the U.S. government's official web portal to all federal, state and local government web resources and services.